createdAt,value
2018-09-27T03:41:47.156Z,1003.29
2018-09-27T05:34:56.598Z,1003.09
2018-09-27T05:35:43.038Z,1003.11
2018-09-27T06:01:56.058Z,1003.12
2018-09-27T06:18:28.395Z,1003.06
2018-09-27T06:19:18.416Z,1002.98
2018-09-27T06:21:21.216Z,1002.95
2018-09-27T06:26:05.432Z,1003.02
2018-09-27T06:35:25.182Z,1003.04
2018-09-27T06:38:55.449Z,1003.05
2018-09-27T06:39:56.020Z,1003.07
2018-09-27T06:40:58.007Z,1003.09
2018-09-27T06:42:56.150Z,1003.07
2018-09-27T06:43:58.551Z,1003.07
2018-09-27T06:44:59.306Z,1003.11
2018-09-27T06:45:59.588Z,1003.10
2018-09-27T07:18:29.265Z,1003.17
2018-09-27T07:20:29.761Z,1003.14
2018-09-27T07:21:32.956Z,1003.15
2018-09-27T07:22:29.886Z,1003.16
2018-09-27T07:23:32.251Z,1003.14
2018-09-27T07:24:30.316Z,1003.16
2018-09-27T07:25:30.859Z,1003.13
2018-09-27T07:26:29.770Z,1003.14
2018-09-27T07:27:28.155Z,1003.12
2018-09-27T07:28:31.255Z,1003.11
2018-09-27T07:29:30.907Z,1003.08
2018-09-27T07:30:29.186Z,1003.14
2018-09-27T07:31:28.603Z,1003.12
2018-09-27T07:32:28.680Z,1003.10
2018-09-27T07:33:29.512Z,1003.10
2018-09-27T07:34:28.623Z,1003.12
2018-09-27T07:35:30.033Z,1003.13
2018-09-27T07:36:29.626Z,1003.12
2018-09-27T07:37:30.992Z,1003.15
2018-09-27T07:38:30.696Z,1003.13
2018-09-27T07:39:30.038Z,1003.08
2018-09-27T07:40:30.189Z,1003.10
2018-09-27T07:42:30.333Z,1003.10
2018-09-27T07:43:31.131Z,1003.14
2018-09-27T07:44:31.403Z,1003.10
2018-09-27T07:45:30.832Z,1003.16
2018-09-27T07:46:30.825Z,1003.14
2018-09-27T07:47:31.283Z,1003.17
2018-09-27T07:48:31.728Z,1003.11
2018-09-27T07:49:31.944Z,1003.14
2018-09-27T07:50:31.495Z,1003.13
2018-09-27T07:51:31.913Z,1003.15
2018-09-27T07:52:32.014Z,1003.12
2018-09-27T07:53:32.276Z,1003.09
2018-09-27T07:54:32.344Z,1003.08
2018-09-27T07:55:32.684Z,1003.09
2018-09-27T07:56:32.221Z,1003.07
2018-09-27T07:57:32.474Z,1003.03
2018-09-27T07:58:32.752Z,1003.01
2018-09-27T07:59:33.753Z,1003.00
2018-09-27T08:00:33.053Z,1003.04
2018-09-27T08:01:33.397Z,1003.02
2018-09-27T08:02:34.182Z,1003.09
2018-09-27T08:03:33.696Z,1003.06
2018-09-27T08:04:35.860Z,1003.03
2018-09-27T08:05:33.953Z,1003.00
2018-09-27T08:06:34.245Z,1003.03
2018-09-27T08:07:34.759Z,1003.00
2018-09-27T08:08:34.418Z,1003.02
2018-09-27T08:09:36.825Z,1002.97
2018-09-27T08:10:35.185Z,1002.90
2018-09-27T08:11:35.251Z,1002.91
2018-09-27T08:12:35.245Z,1002.92
2018-09-27T08:13:35.180Z,1002.90
2018-09-27T08:14:48.948Z,1002.91
2018-09-27T08:20:03.626Z,1002.86
2018-09-27T08:49:22.780Z,1002.70
2018-09-27T08:50:30.958Z,1002.68
2018-09-27T08:57:08.336Z,1002.57
2018-09-27T08:58:23.203Z,1002.59
2018-09-27T08:59:06.122Z,1002.55
2018-09-27T09:03:33.574Z,1002.49
2018-09-27T09:07:25.647Z,1002.54
2018-09-27T09:28:32.378Z,1002.65
2018-09-27T10:31:07.091Z,1002.63
2018-09-27T12:17:25.830Z,1000.97
2018-09-27T12:29:52.702Z,1000.71
2018-09-27T12:30:09.068Z,1000.68
2018-09-27T12:59:50.592Z,999.59
2018-09-27T13:05:24.683Z,999.54
2018-09-27T13:07:37.282Z,999.47
2018-09-27T13:13:04.651Z,999.33
2018-09-27T13:14:48.250Z,999.34
2018-09-27T13:21:12.285Z,999.08
2018-09-27T13:28:20.962Z,998.77
2018-09-27T13:29:33.736Z,998.76
2018-09-27T13:32:10.102Z,998.66
2018-09-27T13:33:11.276Z,998.67
2018-09-27T13:34:10.680Z,998.68
2018-09-27T13:36:18.018Z,998.66
2018-09-27T13:37:12.528Z,998.63
2018-09-27T13:38:10.575Z,998.56
2018-09-27T13:39:11.034Z,998.55
2018-09-27T13:40:14.835Z,998.47
2018-09-27T13:41:11.538Z,998.51
2018-09-27T13:42:13.220Z,998.48
2018-09-27T13:43:11.700Z,998.47
2018-09-27T13:44:13.963Z,998.47
2018-09-27T13:45:12.306Z,998.36
2018-09-27T13:46:21.289Z,998.38
2018-09-27T13:47:20.073Z,998.35
2018-09-27T13:48:14.277Z,998.29
2018-09-27T13:49:20.334Z,998.25
2018-09-27T13:50:13.903Z,998.23
2018-09-27T13:51:12.642Z,998.30
2018-09-27T13:52:16.024Z,998.25
2018-09-27T13:53:13.986Z,998.26
2018-09-27T13:54:10.988Z,998.22
2018-09-27T13:55:11.136Z,998.18
2018-09-27T13:56:11.216Z,998.20
2018-09-27T13:57:11.506Z,998.16
2018-09-27T13:58:11.714Z,998.16
2018-09-27T13:59:11.869Z,998.10
2018-09-27T14:00:12.045Z,998.07
2018-09-27T14:01:12.273Z,998.01
2018-09-27T14:02:12.481Z,998.01
2018-09-27T14:03:12.607Z,997.98
2018-09-27T14:04:12.799Z,997.98
2018-09-27T14:06:13.041Z,997.98
2018-09-27T14:07:13.794Z,997.93
2018-09-27T14:08:13.808Z,997.93
2018-09-27T14:09:14.418Z,997.90
2018-09-27T14:10:14.035Z,997.91
2018-09-27T14:11:14.018Z,997.84
2018-09-27T14:12:14.272Z,997.84
2018-09-27T14:13:14.412Z,997.84
2018-09-27T14:14:14.620Z,997.79
2018-09-27T14:15:14.872Z,997.77
2018-09-27T14:16:15.058Z,997.74
2018-09-27T14:17:15.196Z,997.68
2018-09-27T14:18:15.380Z,997.68
2018-09-27T14:19:15.618Z,997.70
2018-09-27T14:20:15.872Z,997.66
2018-09-27T14:21:16.752Z,997.60
2018-09-27T14:22:16.142Z,997.55
2018-09-27T14:23:16.268Z,997.58
2018-09-27T14:24:16.420Z,997.57
2018-09-27T14:25:16.672Z,997.56
2018-09-27T14:26:17.001Z,997.55
2018-09-27T14:27:16.997Z,997.54
2018-09-27T14:28:17.237Z,997.49
2018-09-27T14:29:17.461Z,997.53
2018-09-27T14:30:17.571Z,997.47
2018-09-27T14:31:17.840Z,997.43
2018-09-27T14:32:18.040Z,997.41
2018-09-27T14:33:18.179Z,997.42
2018-09-27T14:34:18.375Z,997.38
2018-09-27T14:35:18.575Z,997.36
2018-09-27T14:36:18.744Z,997.37
2018-09-27T14:37:18.986Z,997.32
2018-09-27T14:38:19.127Z,997.33
2018-09-27T14:39:19.351Z,997.26
2018-09-27T14:40:19.504Z,997.17
2018-09-27T14:41:19.631Z,997.14
2018-09-27T14:42:19.835Z,997.11
2018-09-27T14:43:19.994Z,997.12
2018-09-27T14:44:20.227Z,997.11
2018-09-27T14:45:20.351Z,997.07
2018-09-27T14:46:20.628Z,997.07
2018-09-27T14:47:20.997Z,997.06
2018-09-27T14:48:21.108Z,997.03
2018-09-27T14:49:21.287Z,997.05
2018-09-27T14:50:21.884Z,996.98
2018-09-27T14:51:21.504Z,996.94
2018-09-27T14:52:21.724Z,996.97
2018-09-27T14:53:22.650Z,996.91
2018-09-27T14:54:22.117Z,996.97
2018-09-27T14:55:22.405Z,996.94
2018-09-27T14:56:24.016Z,996.92
2018-09-27T14:57:22.759Z,996.91
2018-09-27T14:58:23.180Z,996.83
2018-09-27T14:59:22.985Z,996.81
2018-09-27T15:00:23.802Z,996.82
2018-09-27T15:01:23.517Z,996.83
2018-09-27T15:02:23.613Z,996.77
2018-09-27T15:03:23.906Z,996.77
2018-09-27T15:04:23.823Z,996.79
2018-09-27T15:05:24.328Z,996.77
2018-09-27T15:06:30.374Z,996.79
2018-09-27T15:07:25.114Z,996.84
2018-09-27T15:13:03.163Z,996.64
2018-09-27T15:19:36.975Z,996.55
2018-09-27T16:09:58.999Z,996.06
2018-09-27T17:10:05.930Z,995.59
2018-09-27T17:12:20.459Z,995.59
2018-09-27T17:41:20.916Z,995.34
2018-09-27T17:50:37.882Z,995.36
2018-09-27T17:51:37.247Z,995.35
2018-09-27T17:55:15.961Z,995.40
2018-09-27T17:59:29.197Z,995.44
2018-09-27T18:00:08.371Z,995.50
2018-09-27T18:01:12.963Z,995.48
2018-09-27T18:02:29.555Z,995.49
2018-09-27T18:03:29.257Z,995.50
2018-09-27T18:04:27.096Z,995.48
2018-09-27T18:05:27.231Z,995.54
2018-09-27T18:06:28.575Z,995.49
2018-09-27T18:07:27.666Z,995.45
2018-09-27T18:08:27.310Z,995.50
2018-09-27T18:09:27.967Z,995.51
2018-09-27T18:10:29.709Z,995.51
2018-09-27T18:11:29.853Z,995.50
2018-09-27T18:12:28.044Z,995.50
2018-09-27T18:13:28.864Z,995.53
2018-09-27T18:14:28.922Z,995.50
2018-09-27T18:15:30.148Z,995.49
2018-09-27T18:16:28.699Z,995.48
2018-09-27T18:17:29.258Z,995.49
2018-09-27T18:18:33.168Z,995.51
